KHSP/HSP METAR and TAF weather

Enter ICAO airport designator
Station Type Date Time Source
KHSP METAR 2019/06/27 08:15 UTC NOAA

KHSP 270815Z AUTO 31007KT 10SM CLR 19/19 A3035 RMK AO2 T01900185


Station Type Date Time Source
KHSP Decoded METAR 2019/06/27 08:15 UTC NOAA

Hot Springs / Ingalls, VA, United States (KHSP) 37-57N 079-50W
Jun 27, 2019 - 04:15 AM EDT / 2019.06.27 0815 UTC
Wind: from the NW (310 degrees) at 8 MPH (7 KT):0
Visibility: 10 mile(s):0
Sky conditions: clear
Temperature: 66.2 F (19.0 C)
Dew Point: 65.3 F (18.5 C)
Relative Humidity: 96%
Pressure (altimeter): 30.35 in. Hg (1027 hPa)
ob: KHSP 270815Z AUTO 31007KT 10SM CLR 19/19 A3035 RMK AO2 T01900185
cycle: 8

Station Type Date Time Source
KHSP TAF UTC NOAA

Error!

Example: see airport list